createdAt,value
2019-03-18T00:00:28.186Z,3.05
2019-03-18T00:02:56.751Z,3.40
2019-03-18T00:05:25.193Z,3.60
2019-03-18T00:07:53.623Z,3.22
2019-03-18T00:10:22.073Z,3.00
2019-03-18T00:12:52.152Z,3.35
2019-03-18T00:15:20.960Z,3.20
2019-03-18T00:17:49.513Z,3.10
2019-03-18T00:20:17.952Z,2.92
2019-03-18T00:22:46.448Z,3.10
2019-03-18T00:25:15.606Z,3.25
2019-03-18T00:27:44.129Z,2.72
2019-03-18T00:30:15.470Z,3.05
2019-03-18T00:32:43.915Z,2.90
2019-03-18T00:35:12.424Z,2.92
2019-03-18T00:37:40.865Z,3.10
2019-03-18T00:40:12.713Z,3.30
2019-03-18T00:42:41.126Z,3.08
2019-03-18T00:45:14.991Z,3.40
2019-03-18T00:47:41.204Z,3.45
2019-03-18T00:50:12.400Z,3.37
2019-03-18T00:52:40.870Z,3.08
2019-03-18T00:55:10.152Z,3.47
2019-03-18T00:57:40.296Z,3.20
2019-03-18T01:00:11.888Z,3.30
2019-03-18T01:02:40.334Z,4.10
2019-03-18T01:05:08.921Z,3.50
2019-03-18T01:07:37.422Z,3.45
2019-03-18T01:10:16.992Z,3.35
2019-03-18T01:12:45.487Z,3.30
2019-03-18T01:15:26.891Z,3.45
2019-03-18T01:17:44.705Z,3.67
2019-03-18T01:20:14.255Z,3.33
2019-03-18T01:22:42.877Z,3.37
2019-03-18T01:25:11.575Z,3.42
2019-03-18T01:27:40.489Z,3.87
2019-03-18T01:30:11.721Z,3.08
2019-03-18T01:32:40.156Z,3.50
2019-03-18T01:35:10.261Z,3.62
2019-03-18T01:37:38.781Z,4.12
2019-03-18T01:40:10.529Z,3.90
2019-03-18T01:42:38.986Z,4.45
2019-03-18T01:45:08.931Z,5.08
2019-03-18T01:47:37.378Z,4.92
2019-03-18T01:50:11.079Z,5.30
2019-03-18T01:52:39.576Z,5.00
2019-03-18T01:55:08.022Z,3.87
2019-03-18T01:57:36.465Z,3.80
2019-03-18T02:00:08.282Z,3.45
2019-03-18T02:02:36.697Z,3.22
2019-03-18T02:05:06.592Z,3.33
2019-03-18T02:07:35.070Z,3.35
2019-03-18T02:10:05.803Z,3.35
2019-03-18T02:12:34.225Z,2.83
2019-03-18T02:15:02.737Z,2.98
2019-03-18T02:17:31.168Z,3.27
2019-03-18T02:19:59.602Z,3.15
2019-03-18T02:22:28.045Z,3.70
2019-03-18T02:24:56.485Z,3.75
2019-03-18T02:27:24.931Z,4.25
2019-03-18T02:29:53.351Z,4.70
2019-03-18T02:32:21.795Z,4.42
2019-03-18T02:34:50.219Z,4.75
2019-03-18T02:37:18.678Z,4.50
2019-03-18T02:39:47.182Z,4.60
2019-03-18T02:42:15.689Z,4.97
2019-03-18T02:44:44.132Z,4.33
2019-03-18T02:47:12.626Z,4.40
2019-03-18T02:49:41.103Z,4.65
2019-03-18T02:52:09.594Z,5.12
2019-03-18T02:54:38.087Z,4.22
2019-03-18T02:57:06.583Z,4.25
2019-03-18T02:59:35.121Z,4.33
2019-03-18T03:02:03.698Z,4.10
2019-03-18T03:04:32.210Z,3.52
2019-03-18T03:07:00.626Z,3.77
2019-03-18T03:09:29.627Z,3.62
2019-03-18T03:11:58.060Z,3.55
2019-03-18T03:14:26.520Z,3.20
2019-03-18T03:16:54.954Z,3.50
2019-03-18T03:19:23.409Z,3.17
2019-03-18T03:21:51.849Z,3.00
2019-03-18T03:24:20.286Z,3.15
2019-03-18T03:26:48.742Z,2.52
2019-03-18T03:29:17.265Z,2.72
2019-03-18T03:31:45.744Z,2.55
2019-03-18T03:34:14.643Z,2.05
2019-03-18T03:36:43.147Z,2.12
2019-03-18T03:39:11.603Z,2.40
2019-03-18T03:41:40.142Z,2.77
2019-03-18T03:44:08.622Z,2.47
2019-03-18T03:46:43.831Z,3.33
2019-03-18T03:49:07.204Z,2.85
2019-03-18T03:51:35.657Z,2.72
2019-03-18T03:54:04.102Z,3.33
2019-03-18T03:56:34.599Z,3.45
2019-03-18T03:59:03.034Z,2.60
2019-03-18T04:01:31.535Z,3.33
2019-03-18T04:04:00.043Z,2.77
2019-03-18T04:06:28.487Z,2.95
2019-03-18T04:08:57.015Z,3.00
2019-03-18T04:11:25.634Z,3.25
2019-03-18T04:13:54.123Z,2.50
2019-03-18T04:16:22.589Z,3.27
2019-03-18T04:18:51.102Z,3.15
2019-03-18T04:21:19.568Z,3.20
2019-03-18T04:23:47.987Z,3.10
2019-03-18T04:26:16.520Z,3.50
2019-03-18T04:28:44.957Z,3.62
2019-03-18T04:31:13.443Z,4.20
2019-03-18T04:33:41.898Z,3.45
2019-03-18T04:36:10.315Z,3.20
2019-03-18T04:38:41.230Z,2.87
2019-03-18T04:41:09.661Z,3.25
2019-03-18T04:43:38.105Z,2.90
2019-03-18T04:46:06.550Z,4.03
2019-03-18T04:48:35.081Z,3.22
2019-03-18T04:51:03.515Z,4.05
2019-03-18T04:53:32.011Z,3.47
2019-03-18T04:56:00.446Z,3.58
2019-03-18T04:58:28.890Z,3.87
2019-03-18T05:00:57.322Z,4.05
2019-03-18T05:03:25.773Z,4.10
2019-03-18T05:05:54.225Z,4.08
2019-03-18T05:08:22.665Z,4.33
2019-03-18T05:10:51.109Z,3.52
2019-03-18T05:13:19.597Z,3.65
2019-03-18T05:15:48.105Z,4.17
2019-03-18T05:18:16.644Z,3.50
2019-03-18T05:20:45.069Z,3.83
2019-03-18T05:23:13.495Z,3.83
2019-03-18T05:25:41.955Z,3.65
2019-03-18T05:28:10.372Z,3.90
2019-03-18T05:30:38.834Z,3.58
2019-03-18T05:33:07.267Z,4.17
2019-03-18T05:35:35.770Z,4.28
2019-03-18T05:38:04.236Z,4.20
2019-03-18T05:40:32.683Z,3.85
2019-03-18T05:43:01.133Z,3.72
2019-03-18T05:45:29.572Z,4.37
2019-03-18T05:47:57.995Z,3.98
2019-03-18T05:50:26.444Z,4.95
2019-03-18T05:52:54.862Z,4.25
2019-03-18T05:55:23.298Z,4.47
2019-03-18T05:57:51.740Z,4.92
2019-03-18T06:00:20.172Z,4.90
2019-03-18T06:02:48.595Z,5.22
2019-03-18T06:05:17.062Z,4.05
2019-03-18T06:07:45.481Z,5.75
2019-03-18T06:10:14.322Z,5.45
2019-03-18T06:12:42.905Z,5.22
2019-03-18T06:15:12.502Z,4.67
2019-03-18T06:17:51.550Z,4.85
2019-03-18T06:20:32.075Z,4.72
2019-03-18T06:23:00.508Z,5.65
2019-03-18T06:25:28.937Z,5.05
2019-03-18T06:27:57.378Z,5.67
2019-03-18T06:30:25.804Z,5.25
2019-03-18T06:32:54.246Z,5.35
2019-03-18T06:35:22.722Z,5.53
2019-03-18T06:37:51.139Z,5.60
2019-03-18T06:40:19.584Z,4.92
2019-03-18T06:42:48.041Z,5.53
2019-03-18T06:45:16.459Z,5.28
2019-03-18T06:47:44.894Z,5.33
2019-03-18T06:50:13.694Z,4.62
2019-03-18T06:52:42.146Z,5.80
2019-03-18T06:55:10.667Z,5.53
2019-03-18T06:57:39.115Z,4.67
2019-03-18T07:00:15.439Z,5.05
2019-03-18T07:02:43.899Z,5.50
2019-03-18T07:05:12.451Z,5.25
2019-03-18T07:07:40.883Z,4.90
2019-03-18T07:10:15.106Z,5.30
2019-03-18T07:12:43.527Z,5.47
2019-03-18T07:15:12.128Z,5.45
2019-03-18T07:17:40.644Z,5.08
2019-03-18T07:20:11.138Z,5.45
2019-03-18T07:22:39.565Z,6.28
2019-03-18T07:25:08.265Z,6.37
2019-03-18T07:27:36.709Z,4.95
2019-03-18T07:30:07.950Z,5.62
2019-03-18T07:32:36.391Z,5.47
2019-03-18T07:35:11.188Z,6.60
2019-03-18T07:37:39.610Z,6.45
2019-03-18T07:40:14.012Z,5.33
2019-03-18T07:42:42.497Z,5.70
2019-03-18T07:45:11.965Z,5.60
2019-03-18T07:47:40.417Z,5.58
2019-03-18T07:50:10.993Z,5.22
2019-03-18T07:52:39.445Z,5.62
2019-03-18T07:55:08.829Z,5.35
2019-03-18T07:57:37.247Z,5.12
2019-03-18T08:00:11.457Z,4.45
2019-03-18T08:02:39.873Z,4.47
2019-03-18T08:05:09.542Z,5.25
2019-03-18T08:07:37.968Z,4.85
2019-03-18T08:10:09.633Z,4.50
2019-03-18T08:12:38.077Z,4.90
2019-03-18T08:15:10.763Z,4.65
2019-03-18T08:17:39.192Z,5.10
2019-03-18T08:20:09.793Z,4.20
2019-03-18T08:22:38.225Z,4.37
2019-03-18T08:25:08.213Z,4.83
2019-03-18T08:27:36.661Z,5.35
2019-03-18T08:30:11.098Z,4.85
2019-03-18T08:32:39.546Z,4.47
2019-03-18T08:35:08.039Z,5.30
2019-03-18T08:37:36.498Z,4.47
2019-03-18T08:40:07.798Z,4.42
2019-03-18T08:42:36.215Z,4.47
2019-03-18T08:45:07.350Z,5.10
2019-03-18T08:47:35.797Z,4.58
2019-03-18T08:50:23.563Z,4.92
2019-03-18T08:52:52.003Z,4.97
2019-03-18T08:55:20.525Z,5.20
2019-03-18T08:57:48.949Z,4.87
2019-03-18T09:00:18.134Z,5.42
2019-03-18T09:02:46.585Z,5.75
2019-03-18T09:05:15.078Z,5.37
2019-03-18T09:07:43.570Z,4.28
2019-03-18T09:10:14.437Z,5.37
2019-03-18T09:12:48.951Z,4.78
2019-03-18T09:15:17.377Z,5.35
2019-03-18T09:17:45.806Z,5.05
2019-03-18T09:20:19.309Z,4.85
2019-03-18T09:22:47.828Z,5.55
2019-03-18T09:25:16.239Z,6.47
2019-03-18T09:27:44.690Z,5.90
2019-03-18T09:30:34.004Z,4.83
2019-03-18T09:33:05.347Z,4.53
2019-03-18T09:35:33.775Z,4.47
2019-03-18T09:38:02.299Z,4.03
2019-03-18T09:40:30.735Z,4.55
2019-03-18T09:42:59.178Z,4.03
2019-03-18T09:45:27.621Z,3.80
2019-03-18T09:47:56.332Z,4.25
2019-03-18T09:50:24.967Z,3.42
2019-03-18T09:52:53.394Z,4.05
2019-03-18T09:55:21.814Z,4.95
2019-03-18T09:59:19.421Z,4.42
2019-03-18T10:01:47.837Z,6.00
2019-03-18T10:04:16.266Z,5.40
2019-03-18T10:06:44.733Z,6.35
2019-03-18T10:09:13.163Z,7.75
2019-03-18T10:11:41.584Z,5.75
2019-03-18T10:14:10.039Z,6.47
2019-03-18T10:16:38.453Z,5.80
2019-03-18T10:19:06.904Z,6.17
2019-03-18T10:21:35.412Z,6.65
2019-03-18T10:24:03.850Z,6.35
2019-03-18T10:26:32.363Z,6.45
2019-03-18T10:29:00.794Z,5.87
2019-03-18T10:31:29.217Z,4.42
2019-03-18T10:33:57.642Z,5.90
2019-03-18T10:36:26.080Z,5.92
2019-03-18T10:38:54.505Z,4.22
2019-03-18T10:41:23.035Z,4.03
2019-03-18T10:43:51.445Z,4.30
2019-03-18T10:46:19.884Z,3.08
2019-03-18T10:48:48.322Z,2.42
2019-03-18T10:51:16.747Z,2.17
2019-03-18T10:53:45.219Z,2.80
2019-03-18T10:56:13.706Z,2.80
2019-03-18T10:58:42.128Z,4.12
2019-03-18T11:01:10.558Z,4.40
2019-03-18T11:03:39.160Z,4.78
2019-03-18T11:06:07.594Z,5.75
2019-03-18T11:08:36.036Z,6.53
2019-03-18T11:11:04.470Z,6.08
2019-03-18T11:13:32.913Z,6.58
2019-03-18T11:16:01.358Z,6.55
2019-03-18T11:18:29.777Z,6.20
2019-03-18T11:20:58.308Z,3.55
2019-03-18T11:23:26.745Z,2.20
2019-03-18T11:25:55.182Z,2.35
2019-03-18T11:28:23.637Z,2.58
2019-03-18T11:30:52.063Z,2.25
2019-03-18T11:33:20.504Z,2.92
2019-03-18T11:35:49.487Z,3.30
2019-03-18T11:38:17.911Z,3.45
2019-03-18T11:40:46.455Z,3.27
2019-03-18T11:43:14.948Z,3.92
2019-03-18T11:45:43.405Z,3.37
2019-03-18T11:48:11.890Z,3.45
2019-03-18T11:50:41.533Z,3.33
2019-03-18T11:53:14.471Z,3.58
2019-03-18T11:55:40.372Z,4.53
2019-03-18T11:58:08.824Z,4.08
2019-03-18T12:00:37.314Z,4.08
2019-03-18T12:03:05.824Z,4.20
2019-03-18T12:05:34.295Z,4.95
2019-03-18T12:08:02.787Z,5.50
2019-03-18T12:10:31.241Z,6.37
2019-03-18T12:12:59.732Z,5.95
2019-03-18T12:15:28.330Z,6.10
2019-03-18T12:17:56.808Z,5.35
2019-03-18T12:20:25.922Z,3.95
2019-03-18T12:22:54.582Z,5.45
2019-03-18T12:25:23.102Z,4.30
2019-03-18T12:27:51.543Z,4.45
2019-03-18T12:30:43.555Z,4.80
2019-03-18T12:33:11.984Z,4.28
2019-03-18T12:35:40.481Z,4.25
2019-03-18T12:38:08.925Z,5.47
2019-03-18T12:40:37.347Z,5.72
2019-03-18T12:43:25.137Z,4.70
2019-03-18T12:46:12.922Z,5.83
2019-03-18T12:48:41.347Z,5.47
2019-03-18T12:51:09.766Z,5.72
2019-03-18T12:53:38.202Z,5.65
2019-03-18T12:56:06.694Z,5.33
2019-03-18T12:58:35.157Z,4.75
2019-03-18T13:01:12.470Z,5.10
2019-03-18T13:03:33.823Z,5.70
2019-03-18T13:06:02.275Z,3.55
2019-03-18T13:08:30.718Z,2.72
2019-03-18T13:10:59.150Z,2.75
2019-03-18T13:13:27.649Z,3.58
2019-03-18T13:15:56.077Z,3.65
2019-03-18T13:18:27.622Z,3.50
2019-03-18T13:21:07.366Z,4.05
2019-03-18T13:23:26.297Z,4.97
2019-03-18T13:25:54.760Z,4.10
2019-03-18T13:28:23.209Z,5.35
2019-03-18T13:30:51.692Z,6.47
2019-03-18T13:33:20.203Z,5.55
2019-03-18T13:35:48.869Z,5.33
2019-03-18T13:38:17.425Z,5.25
2019-03-18T13:40:46.164Z,2.67
2019-03-18T13:43:14.669Z,3.05
2019-03-18T13:45:54.834Z,2.47
2019-03-18T13:48:13.278Z,3.00
2019-03-18T13:50:47.484Z,2.80
2019-03-18T13:53:15.908Z,3.70
2019-03-18T13:55:44.429Z,2.95
2019-03-18T13:58:12.854Z,4.10
2019-03-18T14:00:41.308Z,4.90
2019-03-18T14:03:09.825Z,3.40
2019-03-18T14:05:38.254Z,4.05
2019-03-18T14:08:06.697Z,4.03
2019-03-18T14:10:35.166Z,3.55
2019-03-18T14:13:03.592Z,3.83
2019-03-18T14:15:32.034Z,4.85
2019-03-18T14:18:00.467Z,4.70
2019-03-18T14:20:29.671Z,5.35
2019-03-18T14:22:58.099Z,5.58
2019-03-18T14:25:26.533Z,5.28
2019-03-18T14:27:54.981Z,5.92
2019-03-18T14:30:23.989Z,5.00
2019-03-18T14:32:52.726Z,6.00
2019-03-18T14:35:21.988Z,5.92
2019-03-18T14:37:51.041Z,4.87
2019-03-18T14:40:23.336Z,5.17
2019-03-18T14:42:51.879Z,5.75
2019-03-18T14:45:23.951Z,4.87
2019-03-18T14:47:52.479Z,3.10
2019-03-18T14:50:24.088Z,3.10
2019-03-18T14:52:52.540Z,3.62
2019-03-18T14:55:21.050Z,4.05
2019-03-18T14:57:49.762Z,4.83
2019-03-18T15:00:29.265Z,4.58
2019-03-18T15:02:57.723Z,5.30
2019-03-18T15:05:26.217Z,5.47
2019-03-18T15:07:54.733Z,5.00
2019-03-18T15:10:24.977Z,5.80
2019-03-18T15:12:53.466Z,4.30
2019-03-18T15:15:21.972Z,5.65
2019-03-18T15:17:50.473Z,4.42
2019-03-18T15:20:23.883Z,5.35
2019-03-18T15:22:52.333Z,4.60
2019-03-18T15:25:25.645Z,3.80
2019-03-18T15:27:55.997Z,3.50
2019-03-18T15:30:24.453Z,3.25
2019-03-18T15:32:52.974Z,3.25
2019-03-18T15:35:21.432Z,4.37
2019-03-18T15:37:50.831Z,3.80
2019-03-18T15:40:43.127Z,4.08
2019-03-18T15:43:11.551Z,4.75
2019-03-18T15:45:40.054Z,5.25
2019-03-18T15:48:08.492Z,5.20
2019-03-18T15:50:36.935Z,5.10
2019-03-18T15:53:05.377Z,5.42
2019-03-18T15:55:33.821Z,5.30
2019-03-18T15:58:02.246Z,5.78
2019-03-18T16:00:31.822Z,4.87
2019-03-18T16:03:00.717Z,3.40
2019-03-18T16:05:29.229Z,3.60
2019-03-18T16:07:58.153Z,4.30
2019-03-18T16:10:26.662Z,5.22
2019-03-18T16:12:55.177Z,4.53
2019-03-18T16:15:23.675Z,4.22
2019-03-18T16:18:11.581Z,4.58
2019-03-18T16:20:40.059Z,4.58
2019-03-18T16:23:09.531Z,4.95
2019-03-18T16:25:40.021Z,5.55
2019-03-18T16:28:08.499Z,5.58
2019-03-18T16:30:37.058Z,4.90
2019-03-18T16:33:05.574Z,4.87
2019-03-18T16:35:39.775Z,5.17
2019-03-18T16:38:08.357Z,6.50
2019-03-18T16:40:37.401Z,5.67
2019-03-18T16:43:07.200Z,5.95
2019-03-18T16:45:35.789Z,5.55
2019-03-18T16:48:04.420Z,5.87
2019-03-18T16:50:33.207Z,5.55
2019-03-18T16:53:02.029Z,5.58
2019-03-18T16:55:30.696Z,6.22
2019-03-18T16:57:59.431Z,4.97
2019-03-18T17:00:28.442Z,6.22
2019-03-18T17:02:56.946Z,6.03
2019-03-18T17:05:26.536Z,5.90
2019-03-18T17:07:55.141Z,6.20
2019-03-18T17:10:23.672Z,6.05
2019-03-18T17:12:52.113Z,4.67
2019-03-18T17:15:22.564Z,4.12
2019-03-18T17:18:01.030Z,4.80
2019-03-18T17:20:29.539Z,3.67
2019-03-18T17:25:53.574Z,3.95
2019-03-18T17:28:22.365Z,5.45
2019-03-18T17:30:53.572Z,4.45
2019-03-18T17:33:22.194Z,5.50
2019-03-18T17:35:55.799Z,5.12
2019-03-18T17:38:24.462Z,4.87
2019-03-18T17:40:53.027Z,5.53
2019-03-18T17:43:23.135Z,5.65
2019-03-18T17:45:51.578Z,5.00
2019-03-18T17:51:54.936Z,5.50
2019-03-18T17:54:28.670Z,4.87
2019-03-18T18:00:05.708Z,3.98
2019-03-18T18:02:34.985Z,3.52
2019-03-18T18:05:24.891Z,3.40
2019-03-18T18:07:53.240Z,3.20
2019-03-18T18:10:22.838Z,3.05
2019-03-18T18:13:04.569Z,3.15
2019-03-18T18:15:45.446Z,2.80
2019-03-18T18:18:15.707Z,2.83
2019-03-18T18:20:45.980Z,2.83
2019-03-18T18:23:15.180Z,3.02
2019-03-18T18:25:43.896Z,3.83
2019-03-18T18:28:12.496Z,3.60
2019-03-18T18:30:40.933Z,3.58
2019-03-18T18:33:09.363Z,3.42
2019-03-18T18:35:37.923Z,4.30
2019-03-18T18:38:06.407Z,4.17
2019-03-18T18:40:34.927Z,4.15
2019-03-18T18:43:03.482Z,4.47
2019-03-18T18:45:32.039Z,3.65
2019-03-18T18:48:00.560Z,4.28
2019-03-18T18:50:29.154Z,3.52
2019-03-18T18:52:57.680Z,3.98
2019-03-18T18:55:26.209Z,4.37
2019-03-18T18:57:56.886Z,4.28
2019-03-18T19:03:20.150Z,3.95
2019-03-18T19:05:48.794Z,4.15
2019-03-18T19:08:17.350Z,4.20
2019-03-18T19:10:46.342Z,4.55
2019-03-18T19:13:17.615Z,4.33
2019-03-18T19:15:45.085Z,4.20
2019-03-18T19:18:13.551Z,4.53
2019-03-18T19:20:42.233Z,4.75
2019-03-18T19:23:10.785Z,4.83
2019-03-18T19:25:39.418Z,5.22
2019-03-18T19:28:10.113Z,4.85
2019-03-18T19:30:38.628Z,5.25
2019-03-18T19:33:07.209Z,5.03
2019-03-18T19:35:35.641Z,4.53
2019-03-18T19:38:06.969Z,4.75
2019-03-18T19:40:54.900Z,5.20
2019-03-18T19:43:23.333Z,4.33
2019-03-18T19:45:51.763Z,4.55
2019-03-18T19:48:23.042Z,4.80
2019-03-18T19:50:51.478Z,4.42
2019-03-18T19:53:20.011Z,6.15
2019-03-18T19:55:48.526Z,5.17
2019-03-18T19:58:17.095Z,4.50
2019-03-18T20:00:48.471Z,4.33
2019-03-18T20:03:19.639Z,4.78
2019-03-18T20:05:48.200Z,4.72
2019-03-18T20:08:16.640Z,4.83
2019-03-18T20:10:45.144Z,5.22
2019-03-18T20:13:13.674Z,4.70
2019-03-18T20:15:44.149Z,4.60
2019-03-18T20:18:12.604Z,5.15
2019-03-18T20:20:45.725Z,5.30
2019-03-18T20:23:15.750Z,5.90
2019-03-18T20:25:44.178Z,5.20
2019-03-18T20:28:12.722Z,5.30
2019-03-18T20:30:41.165Z,6.08
2019-03-18T20:33:09.604Z,5.00
2019-03-18T20:35:38.043Z,5.47
2019-03-18T20:38:06.516Z,4.78
2019-03-18T20:40:35.003Z,5.92
2019-03-18T20:43:03.438Z,6.15
2019-03-18T20:45:33.266Z,5.58
2019-03-18T20:48:03.309Z,4.60
2019-03-18T20:50:36.082Z,5.53
2019-03-18T20:53:03.555Z,4.72
2019-03-18T20:55:31.989Z,5.65
2019-03-18T20:58:00.461Z,4.78
2019-03-18T21:00:28.954Z,5.80
2019-03-18T21:02:57.383Z,5.92
2019-03-18T21:05:25.892Z,5.20
2019-03-18T21:07:54.919Z,6.25
2019-03-18T21:10:23.424Z,4.90
2019-03-18T21:12:51.942Z,5.87
2019-03-18T21:15:20.539Z,4.37
2019-03-18T21:17:49.093Z,5.05
2019-03-18T21:20:22.801Z,4.55
2019-03-18T21:22:52.792Z,5.40
2019-03-18T21:25:21.230Z,5.28
2019-03-18T21:27:49.691Z,4.53
2019-03-18T21:30:20.549Z,4.80
2019-03-18T21:32:49.238Z,4.92
2019-03-18T21:35:17.718Z,5.95
2019-03-18T21:37:47.039Z,5.40
2019-03-18T21:40:24.917Z,4.75
2019-03-18T21:42:53.438Z,4.60
2019-03-18T21:45:29.022Z,5.28
2019-03-18T21:47:55.110Z,4.97
2019-03-18T21:50:23.927Z,6.08
2019-03-18T21:52:52.346Z,6.03
2019-03-18T21:55:25.463Z,5.78
2019-03-18T21:57:55.092Z,5.50
2019-03-18T22:00:23.975Z,4.97
2019-03-18T22:02:53.080Z,5.12
2019-03-18T22:05:21.676Z,4.60
2019-03-18T22:07:50.143Z,5.60
2019-03-18T22:10:22.878Z,5.28
2019-03-18T22:12:51.303Z,5.97
2019-03-18T22:15:21.146Z,5.37
2019-03-18T22:17:49.650Z,6.20
2019-03-18T22:20:22.742Z,5.70
2019-03-18T22:22:51.194Z,5.42
2019-03-18T22:25:19.703Z,5.65
2019-03-18T22:27:48.160Z,4.97
2019-03-18T22:30:20.471Z,5.00
2019-03-18T22:32:48.981Z,5.25
2019-03-18T22:35:17.430Z,6.00
2019-03-18T22:37:45.910Z,4.87
2019-03-18T22:40:16.467Z,5.60
2019-03-18T22:42:45.038Z,4.72
2019-03-18T22:45:15.487Z,4.90
2019-03-18T22:47:43.946Z,5.58
2019-03-18T22:50:13.785Z,5.37
2019-03-18T22:52:42.294Z,5.65
2019-03-18T22:55:14.770Z,5.22
2019-03-18T22:57:43.335Z,5.20
2019-03-18T23:00:21.292Z,5.53
2019-03-18T23:02:50.116Z,4.35
2019-03-18T23:05:18.672Z,4.53
2019-03-18T23:07:47.120Z,4.65
2019-03-18T23:10:15.550Z,4.87
2019-03-18T23:12:44.038Z,4.67
2019-03-18T23:15:12.649Z,4.70
2019-03-18T23:17:41.462Z,4.58
2019-03-18T23:20:10.063Z,5.17
2019-03-18T23:22:38.482Z,4.75
2019-03-18T23:25:08.168Z,4.30
2019-03-18T23:27:36.952Z,5.25
2019-03-18T23:30:07.942Z,4.53
2019-03-18T23:32:36.389Z,5.08
2019-03-18T23:35:06.371Z,5.08
2019-03-18T23:37:34.805Z,5.03
2019-03-18T23:40:04.970Z,4.78
2019-03-18T23:42:33.406Z,4.67
2019-03-18T23:45:01.847Z,4.72
2019-03-18T23:47:30.291Z,5.00
2019-03-18T23:49:58.737Z,4.97
2019-03-18T23:52:27.173Z,5.80
2019-03-18T23:54:55.607Z,5.03
2019-03-18T23:57:24.038Z,4.85
2019-03-18T23:59:52.482Z,5.05
